createdAt,value
2023-04-29T00:01:01.936Z,30.15
2023-04-29T00:03:32.527Z,34.35
2023-04-29T00:06:01.311Z,34.63
2023-04-29T00:08:29.692Z,33.08
2023-04-29T00:10:57.566Z,30.15
2023-04-29T00:13:26.066Z,29.30
2023-04-29T00:15:55.298Z,32.43
2023-04-29T00:18:23.173Z,36.38
2023-04-29T00:20:51.095Z,31.33
2023-04-29T00:23:18.904Z,33.45
2023-04-29T00:25:46.818Z,34.38
2023-04-29T00:28:14.682Z,38.88
2023-04-29T00:30:42.651Z,31.25
2023-04-29T00:33:12.616Z,32.55
2023-04-29T00:35:40.444Z,34.37
2023-04-29T00:38:08.552Z,28.88
2023-04-29T00:40:37.208Z,36.38
2023-04-29T00:43:05.126Z,28.40
2023-04-29T00:45:33.094Z,29.50
2023-04-29T00:48:00.975Z,30.07
2023-04-29T00:50:30.846Z,33.20
2023-04-29T00:52:59.070Z,30.38
2023-04-29T00:55:27.840Z,35.42
2023-04-29T00:57:55.722Z,31.60
2023-04-29T01:00:24.890Z,32.15
2023-04-29T01:02:54.197Z,31.95
2023-04-29T01:05:22.227Z,34.83
2023-04-29T01:08:13.140Z,32.30
2023-04-29T01:10:48.084Z,33.13
2023-04-29T01:13:20.020Z,28.35
2023-04-29T01:16:01.495Z,29.67
2023-04-29T01:18:34.618Z,29.70
2023-04-29T01:21:02.711Z,34.25
2023-04-29T01:23:32.253Z,31.40
2023-04-29T01:26:00.639Z,31.80
2023-04-29T01:28:41.893Z,31.23
2023-04-29T01:31:14.129Z,29.08
2023-04-29T01:33:49.329Z,32.92
2023-04-29T01:36:25.080Z,27.20
2023-04-29T01:39:04.303Z,31.67
2023-04-29T01:41:37.036Z,34.67
2023-04-29T01:44:09.042Z,29.25
2023-04-29T01:46:37.502Z,29.02
2023-04-29T01:49:05.421Z,33.45
2023-04-29T01:51:34.132Z,30.60
2023-04-29T01:54:05.210Z,28.70
2023-04-29T01:56:33.099Z,31.00
2023-04-29T01:59:01.033Z,30.63
2023-04-29T02:01:28.839Z,31.98
2023-04-29T02:03:56.934Z,27.75
2023-04-29T02:06:25.261Z,30.02
2023-04-29T02:08:53.120Z,28.58
2023-04-29T02:11:22.422Z,27.35
2023-04-29T02:13:50.351Z,28.52
2023-04-29T02:16:18.885Z,24.15
2023-04-29T02:18:46.912Z,27.27
2023-04-29T02:21:14.885Z,27.23
2023-04-29T02:23:42.773Z,29.80
2023-04-29T02:26:10.699Z,25.45
2023-04-29T02:28:40.045Z,27.45
2023-04-29T02:31:08.033Z,24.80
2023-04-29T02:33:35.865Z,23.80
2023-04-29T02:36:03.854Z,28.05
2023-04-29T02:38:31.776Z,26.23
2023-04-29T02:40:59.700Z,23.45
2023-04-29T02:43:30.859Z,22.75
2023-04-29T02:46:00.556Z,23.88
2023-04-29T02:48:28.621Z,25.45
2023-04-29T02:50:56.472Z,23.53
2023-04-29T02:53:24.413Z,23.00
2023-04-29T02:55:52.324Z,22.33
2023-04-29T02:58:20.277Z,25.42
2023-04-29T03:00:48.136Z,24.45
2023-04-29T03:03:17.550Z,24.35
2023-04-29T03:05:45.633Z,22.20
2023-04-29T03:08:13.563Z,24.10
2023-04-29T03:10:41.898Z,21.70
2023-04-29T03:13:09.848Z,22.15
2023-04-29T03:15:39.362Z,22.17
2023-04-29T03:18:07.325Z,22.70
2023-04-29T03:20:36.830Z,23.75
2023-04-29T03:23:05.213Z,23.23
2023-04-29T03:25:33.155Z,24.20
2023-04-29T03:28:01.129Z,22.23
2023-04-29T03:30:28.996Z,21.52
2023-04-29T03:32:56.899Z,22.60
2023-04-29T03:35:24.905Z,22.77
2023-04-29T03:37:54.095Z,24.07
2023-04-29T03:40:22.176Z,21.27
2023-04-29T03:42:50.306Z,22.75
2023-04-29T03:45:18.356Z,24.88
2023-04-29T03:47:46.211Z,20.40
2023-04-29T03:50:14.159Z,22.30
2023-04-29T03:52:42.184Z,22.15
2023-04-29T03:55:12.674Z,23.30
2023-04-29T03:57:42.285Z,23.20
2023-04-29T04:00:11.558Z,20.33
2023-04-29T04:02:39.560Z,22.37
2023-04-29T04:05:07.780Z,21.67
2023-04-29T04:07:35.818Z,24.52
2023-04-29T04:10:03.779Z,23.17
2023-04-29T04:12:33.068Z,24.17
2023-04-29T04:15:00.969Z,25.73
2023-04-29T04:17:28.916Z,22.38
2023-04-29T04:19:56.912Z,24.60
2023-04-29T04:22:24.868Z,22.45
2023-04-29T04:24:52.723Z,22.67
2023-04-29T04:27:20.540Z,22.20
2023-04-29T04:29:50.052Z,22.63
2023-04-29T04:32:18.098Z,25.37
2023-04-29T04:34:45.945Z,21.38
2023-04-29T04:37:13.776Z,23.90
2023-04-29T04:39:41.725Z,23.23
2023-04-29T04:42:09.572Z,20.67
2023-04-29T04:44:37.512Z,20.13
2023-04-29T04:47:07.204Z,22.58
2023-04-29T04:49:35.133Z,21.48
2023-04-29T04:52:02.961Z,21.23
2023-04-29T04:54:30.877Z,25.98
2023-04-29T04:56:58.711Z,21.10
2023-04-29T04:59:26.713Z,25.15
2023-04-29T05:01:55.439Z,23.73
2023-04-29T05:04:25.085Z,26.08
2023-04-29T05:06:53.108Z,22.65
2023-04-29T05:09:21.007Z,24.30
2023-04-29T05:11:48.910Z,21.95
2023-04-29T05:14:17.105Z,21.52
2023-04-29T05:16:46.558Z,25.10
2023-04-29T05:19:14.579Z,27.63
2023-04-29T05:21:43.868Z,27.60
2023-04-29T05:24:11.848Z,25.35
2023-04-29T05:26:39.761Z,25.00
2023-04-29T05:29:07.668Z,25.23
2023-04-29T05:31:35.523Z,22.30
2023-04-29T05:34:03.426Z,24.03
2023-04-29T05:36:31.623Z,25.90
2023-04-29T05:39:00.855Z,29.35
2023-04-29T05:41:28.755Z,25.23
2023-04-29T05:43:56.636Z,26.15
2023-04-29T05:46:24.578Z,25.80
2023-04-29T05:48:52.439Z,27.25
2023-04-29T05:51:20.293Z,27.20
2023-04-29T05:53:48.198Z,23.90
2023-04-29T05:56:19.072Z,27.30
2023-04-29T05:58:47.062Z,26.23
2023-04-29T06:01:14.952Z,29.77
2023-04-29T06:03:42.984Z,25.45
2023-04-29T06:06:11.386Z,29.10
2023-04-29T06:08:39.308Z,23.55
2023-04-29T06:11:07.205Z,23.85
2023-04-29T06:13:36.483Z,24.80
2023-04-29T06:16:04.549Z,26.38
2023-04-29T06:18:32.527Z,24.85
2023-04-29T06:21:00.505Z,27.38
2023-04-29T06:23:28.416Z,27.45
2023-04-29T06:25:56.338Z,23.83
2023-04-29T06:28:24.255Z,27.10
2023-04-29T06:30:53.492Z,24.88
2023-04-29T06:33:21.436Z,24.40
2023-04-29T06:35:49.321Z,23.85
2023-04-29T06:38:17.177Z,22.50
2023-04-29T06:40:45.090Z,26.50
2023-04-29T06:43:12.939Z,26.75
2023-04-29T06:45:40.820Z,24.02
2023-04-29T06:48:10.052Z,24.33
2023-04-29T06:50:37.980Z,24.25
2023-04-29T06:53:05.899Z,26.23
2023-04-29T06:55:33.770Z,25.05
2023-04-29T06:58:01.834Z,25.00
2023-04-29T07:00:29.703Z,28.90
2023-04-29T07:02:57.642Z,24.38
2023-04-29T07:05:27.001Z,22.60
2023-04-29T07:07:54.941Z,24.92
2023-04-29T07:10:22.943Z,22.27
2023-04-29T07:12:50.838Z,25.48
2023-04-29T07:15:19.071Z,25.17
2023-04-29T07:17:46.984Z,23.75
2023-04-29T07:20:15.222Z,21.90
2023-04-29T07:22:44.501Z,22.70
2023-04-29T07:25:12.562Z,23.95
2023-04-29T07:27:40.399Z,21.45
2023-04-29T07:30:09.145Z,23.88
2023-04-29T07:32:37.140Z,20.70
2023-04-29T07:35:05.694Z,21.65
2023-04-29T07:37:33.745Z,20.65
2023-04-29T07:40:02.996Z,22.83
2023-04-29T07:42:30.933Z,19.40
2023-04-29T07:44:58.892Z,17.33
2023-04-29T07:47:27.189Z,16.35
2023-04-29T07:49:55.151Z,22.60
2023-04-29T07:52:23.091Z,18.88
2023-04-29T07:54:51.235Z,20.83
2023-04-29T07:57:20.518Z,19.42
2023-04-29T07:59:48.647Z,19.05
2023-04-29T08:02:16.738Z,17.83
2023-04-29T08:04:44.853Z,17.98
2023-04-29T08:07:12.875Z,18.70
2023-04-29T08:09:40.757Z,19.70
2023-04-29T08:12:09.112Z,15.90
2023-04-29T08:14:38.306Z,18.58
2023-04-29T08:17:06.158Z,17.13
2023-04-29T08:19:34.097Z,17.83
2023-04-29T08:22:04.044Z,13.27
2023-04-29T08:24:33.648Z,19.08
2023-04-29T08:27:01.771Z,13.98
2023-04-29T08:29:32.677Z,18.38
2023-04-29T08:32:02.380Z,12.20
2023-04-29T08:34:30.412Z,13.90
2023-04-29T08:36:58.730Z,14.60
2023-04-29T08:39:26.880Z,15.65
2023-04-29T08:41:56.476Z,15.65
2023-04-29T08:44:24.759Z,15.40
2023-04-29T08:46:53.428Z,14.40
2023-04-29T08:49:22.720Z,16.37
2023-04-29T08:51:51.608Z,14.30
2023-04-29T08:54:19.710Z,16.17
2023-04-29T08:56:48.343Z,14.55
2023-04-29T08:59:18.157Z,12.85
2023-04-29T09:01:50.707Z,13.23
2023-04-29T09:04:39.033Z,13.10
2023-04-29T09:07:08.407Z,12.75
2023-04-29T09:09:37.008Z,12.07
2023-04-29T09:12:05.016Z,13.73
2023-04-29T09:14:34.555Z,12.40
2023-04-29T09:17:02.548Z,12.75
2023-04-29T09:19:32.993Z,12.63
2023-04-29T09:22:02.159Z,11.95
2023-04-29T09:24:31.597Z,10.82
2023-04-29T09:27:00.160Z,11.80
2023-04-29T09:29:28.304Z,10.55
2023-04-29T09:31:58.614Z,12.18
2023-04-29T09:34:35.709Z,9.82
2023-04-29T09:37:03.715Z,14.23
2023-04-29T09:39:40.251Z,12.10
2023-04-29T09:42:09.689Z,12.30
2023-04-29T09:44:37.839Z,13.00
2023-04-29T09:47:07.395Z,11.10
2023-04-29T09:49:38.695Z,10.43
2023-04-29T09:52:08.087Z,12.07
2023-04-29T09:54:37.401Z,9.52
2023-04-29T09:57:06.966Z,11.98
2023-04-29T09:59:36.569Z,13.55
2023-04-29T10:02:09.345Z,11.80
2023-04-29T10:04:41.581Z,12.23
2023-04-29T10:07:10.518Z,10.23
2023-04-29T10:09:40.880Z,10.93
2023-04-29T10:12:09.238Z,10.07
2023-04-29T10:14:48.830Z,12.23
2023-04-29T10:17:22.247Z,15.70
2023-04-29T10:19:57.254Z,8.88
2023-04-29T10:22:33.614Z,10.27
2023-04-29T10:25:02.883Z,8.32
2023-04-29T10:27:34.655Z,7.32
2023-04-29T10:30:05.043Z,8.18
2023-04-29T10:32:49.642Z,7.75
2023-04-29T10:35:23.461Z,9.02
2023-04-29T10:37:52.919Z,9.40
2023-04-29T10:40:25.871Z,6.78
2023-04-29T10:42:54.936Z,8.02
2023-04-29T10:45:25.081Z,9.23
2023-04-29T10:48:15.065Z,7.57
2023-04-29T10:51:02.397Z,9.15
2023-04-29T10:53:31.027Z,7.63
2023-04-29T10:56:04.355Z,8.80
2023-04-29T10:58:40.452Z,7.93
2023-04-29T11:01:11.147Z,6.50
2023-04-29T11:03:58.712Z,6.50
2023-04-29T11:06:41.081Z,6.57
2023-04-29T11:09:14.512Z,5.10
2023-04-29T11:12:05.543Z,6.95
2023-04-29T11:14:38.364Z,7.38
2023-04-29T11:17:09.473Z,8.05
2023-04-29T11:19:41.619Z,7.20
2023-04-29T11:22:13.983Z,6.38
2023-04-29T11:24:56.316Z,7.85
2023-04-29T11:27:26.498Z,7.00
2023-04-29T11:29:58.561Z,7.57
2023-04-29T11:32:27.783Z,7.77
2023-04-29T11:34:56.415Z,7.53
2023-04-29T11:37:28.023Z,8.27
2023-04-29T11:40:01.412Z,5.88
2023-04-29T11:42:29.522Z,6.95
2023-04-29T11:44:59.427Z,8.35
2023-04-29T11:47:28.855Z,8.38
2023-04-29T11:50:04.959Z,14.63
2023-04-29T11:52:36.225Z,12.00
2023-04-29T11:55:04.591Z,8.90
2023-04-29T11:57:32.803Z,6.47
2023-04-29T12:00:01.214Z,11.13
2023-04-29T12:02:32.536Z,11.95
2023-04-29T12:05:02.377Z,9.80
2023-04-29T12:07:30.711Z,10.38
2023-04-29T12:10:00.036Z,11.30
2023-04-29T12:12:29.075Z,8.43
2023-04-29T12:14:57.072Z,8.35
2023-04-29T12:17:25.872Z,9.30
2023-04-29T12:19:53.907Z,9.43
2023-04-29T12:22:21.837Z,7.70
2023-04-29T12:24:50.900Z,15.90
2023-04-29T12:27:20.647Z,11.20
2023-04-29T12:29:48.713Z,11.60
2023-04-29T12:32:18.848Z,11.30
2023-04-29T12:34:47.507Z,10.23
2023-04-29T12:37:16.688Z,13.25
2023-04-29T12:39:44.664Z,10.93
2023-04-29T12:42:17.068Z,12.07
2023-04-29T12:44:48.206Z,8.93
2023-04-29T12:47:16.959Z,9.93
2023-04-29T12:49:46.250Z,10.95
2023-04-29T12:52:14.649Z,11.85
2023-04-29T12:54:43.832Z,12.32
2023-04-29T12:57:12.289Z,8.38
2023-04-29T12:59:41.196Z,8.50
2023-04-29T13:02:10.695Z,11.50
2023-04-29T13:04:39.989Z,9.52
2023-04-29T13:07:08.193Z,8.53
2023-04-29T13:09:38.027Z,12.43
2023-04-29T13:12:07.723Z,9.95
2023-04-29T13:14:35.648Z,10.18
2023-04-29T13:17:04.101Z,8.15
2023-04-29T13:19:49.683Z,10.13
2023-04-29T13:22:19.675Z,7.47
2023-04-29T13:24:47.586Z,8.80
2023-04-29T13:27:15.569Z,10.10
2023-04-29T13:29:43.574Z,9.40
2023-04-29T13:32:11.648Z,10.32
2023-04-29T13:34:43.213Z,11.32
2023-04-29T13:37:11.356Z,10.48
2023-04-29T13:39:39.770Z,9.55
2023-04-29T13:42:08.988Z,11.88
2023-04-29T13:44:49.779Z,11.43
2023-04-29T13:47:25.704Z,8.98
2023-04-29T13:50:16.845Z,9.97
2023-04-29T13:56:01.703Z,10.20
2023-04-29T14:01:05.133Z,13.07
2023-04-29T14:03:21.367Z,11.18
2023-04-29T14:05:51.315Z,11.77
2023-04-29T14:08:19.252Z,8.48
2023-04-29T14:10:47.847Z,11.85
2023-04-29T14:13:15.890Z,10.35
2023-04-29T14:15:43.835Z,10.23
2023-04-29T14:18:30.070Z,10.31
2023-04-29T14:20:59.652Z,9.20
2023-04-29T14:23:27.755Z,12.45
2023-04-29T14:26:06.237Z,11.55
2023-04-29T14:28:43.788Z,10.23
2023-04-29T14:31:13.793Z,10.63
2023-04-29T14:33:41.849Z,9.27
2023-04-29T14:36:11.066Z,10.27
2023-04-29T14:38:38.947Z,8.43
2023-04-29T14:41:07.557Z,11.03
2023-04-29T14:43:36.730Z,8.82
2023-04-29T14:46:05.041Z,10.95
2023-04-29T14:48:33.143Z,11.23
2023-04-29T14:51:01.123Z,9.32
2023-04-29T14:53:30.386Z,8.85
2023-04-29T14:55:58.395Z,9.30
2023-04-29T14:58:26.423Z,10.80
2023-04-29T15:00:54.483Z,6.85
2023-04-29T15:03:23.199Z,10.82
2023-04-29T15:05:51.777Z,9.15
2023-04-29T15:08:20.048Z,10.30
2023-04-29T15:10:49.838Z,10.55
2023-04-29T15:13:17.770Z,8.55
2023-04-29T15:15:45.722Z,7.53
2023-04-29T15:18:13.728Z,9.23
2023-04-29T15:20:44.123Z,10.82
2023-04-29T15:23:12.115Z,10.80
2023-04-29T15:25:40.242Z,6.97
2023-04-29T15:28:09.494Z,7.30
2023-04-29T15:30:37.637Z,8.90
2023-04-29T15:33:05.673Z,6.40
2023-04-29T15:35:35.039Z,7.50
2023-04-29T15:38:02.894Z,8.10
2023-04-29T15:40:30.773Z,8.98
2023-04-29T15:42:58.734Z,5.80
2023-04-29T15:45:28.058Z,6.65
2023-04-29T15:47:55.987Z,4.97
2023-04-29T15:50:23.949Z,6.53
2023-04-29T15:52:55.141Z,8.47
2023-04-29T15:55:23.174Z,6.20
2023-04-29T15:57:51.485Z,6.68
2023-04-29T16:00:19.599Z,5.70
2023-04-29T16:02:48.895Z,7.40
2023-04-29T16:05:16.981Z,5.68
2023-04-29T16:07:44.972Z,5.03
2023-04-29T16:10:14.684Z,6.43
2023-04-29T16:12:42.955Z,8.98
2023-04-29T16:15:11.652Z,6.68
2023-04-29T16:17:39.683Z,6.80
2023-04-29T16:20:10.266Z,4.53
2023-04-29T16:22:38.171Z,4.10
2023-04-29T16:25:06.879Z,4.88
2023-04-29T16:27:34.869Z,7.17
2023-04-29T16:30:04.083Z,4.65
2023-04-29T16:32:33.042Z,4.63
2023-04-29T16:35:01.867Z,7.75
2023-04-29T16:37:31.576Z,3.90
2023-04-29T16:40:00.294Z,4.70
2023-04-29T16:42:28.205Z,7.88
2023-04-29T16:44:56.124Z,5.05
2023-04-29T16:47:24.933Z,5.33
2023-04-29T16:49:53.340Z,6.20
2023-04-29T16:52:22.337Z,6.10
2023-04-29T16:54:51.605Z,7.70
2023-04-29T16:57:21.324Z,4.80
2023-04-29T16:59:49.191Z,5.47
2023-04-29T17:02:17.172Z,7.10
2023-04-29T17:04:45.251Z,5.13
2023-04-29T17:07:14.370Z,4.30
2023-04-29T17:09:42.317Z,10.90
2023-04-29T17:12:11.861Z,6.87
2023-04-29T17:14:40.520Z,3.75
2023-04-29T17:17:08.605Z,6.18
2023-04-29T17:19:36.532Z,2.40
2023-04-29T17:22:04.935Z,4.30
2023-04-29T17:24:33.723Z,3.67
2023-04-29T17:27:01.609Z,2.50
2023-04-29T17:29:30.838Z,2.50
2023-04-29T17:32:02.039Z,5.70
2023-04-29T17:34:31.140Z,7.07
2023-04-29T17:36:59.226Z,4.10
2023-04-29T17:39:27.116Z,2.38
2023-04-29T17:41:55.085Z,3.50
2023-04-29T17:44:23.567Z,4.00
2023-04-29T17:46:53.079Z,2.63
2023-04-29T17:49:21.012Z,3.58
2023-04-29T17:51:48.908Z,2.50
2023-04-29T17:54:16.775Z,3.13
2023-04-29T17:56:44.768Z,3.47
2023-04-29T17:59:12.817Z,4.75
2023-04-29T18:01:40.859Z,2.80
2023-04-29T18:04:10.174Z,4.05
2023-04-29T18:06:38.065Z,4.05
2023-04-29T18:09:06.178Z,5.10
2023-04-29T18:11:34.710Z,6.50
2023-04-29T18:14:02.655Z,4.22
2023-04-29T18:16:30.592Z,7.00
2023-04-29T18:18:58.589Z,4.17
2023-04-29T18:21:28.650Z,5.60
2023-04-29T18:23:57.265Z,4.28
2023-04-29T18:26:25.521Z,4.35
2023-04-29T18:28:53.433Z,5.30
2023-04-29T18:31:23.165Z,6.72
2023-04-29T18:33:51.038Z,6.93
2023-04-29T18:36:21.165Z,5.68
2023-04-29T18:38:50.438Z,6.55
2023-04-29T18:41:18.427Z,4.10
2023-04-29T18:43:46.353Z,6.63
2023-04-29T18:46:14.300Z,5.05
2023-04-29T18:48:42.266Z,5.63
2023-04-29T18:51:10.198Z,6.18
2023-04-29T18:53:38.153Z,7.75
2023-04-29T18:56:08.267Z,6.28
2023-04-29T18:58:36.448Z,4.83
2023-04-29T19:01:04.380Z,4.70
2023-04-29T19:03:32.512Z,7.55
2023-04-29T19:06:00.431Z,4.95
2023-04-29T19:08:28.522Z,4.63
2023-04-29T19:10:57.492Z,3.83
2023-04-29T19:13:29.367Z,7.45
2023-04-29T19:15:57.314Z,4.25
2023-04-29T19:18:25.415Z,4.82
2023-04-29T19:20:53.597Z,5.88
2023-04-29T19:23:22.113Z,5.68
2023-04-29T19:25:50.019Z,6.55
2023-04-29T19:28:17.860Z,4.25
2023-04-29T19:30:47.129Z,7.78
2023-04-29T19:33:15.046Z,4.43
2023-04-29T19:35:43.040Z,6.05
2023-04-29T19:38:11.281Z,5.50
2023-04-29T19:40:39.236Z,6.30
2023-04-29T19:43:07.115Z,5.10
2023-04-29T19:45:36.333Z,6.03
2023-04-29T19:48:05.757Z,6.20
2023-04-29T19:50:33.708Z,8.95
2023-04-29T19:53:01.575Z,5.40
2023-04-29T19:55:29.817Z,6.43
2023-04-29T19:57:58.536Z,7.68
2023-04-29T20:00:27.031Z,6.40
2023-04-29T20:02:54.981Z,7.28
2023-04-29T20:05:24.556Z,7.10
2023-04-29T20:07:52.435Z,7.28
2023-04-29T20:10:20.740Z,5.43
2023-04-29T20:12:48.953Z,7.22
2023-04-29T20:15:16.938Z,6.05
2023-04-29T20:17:45.194Z,5.78
2023-04-29T20:20:13.359Z,5.95
2023-04-29T20:22:42.586Z,7.80
2023-04-29T20:25:10.807Z,7.45
2023-04-29T20:27:38.765Z,6.05
2023-04-29T20:30:08.681Z,8.65
2023-04-29T20:32:37.103Z,7.07
2023-04-29T20:35:05.718Z,8.52
2023-04-29T20:37:33.666Z,7.45
2023-04-29T20:40:03.019Z,5.22
2023-04-29T20:42:30.892Z,6.85
2023-04-29T20:44:59.024Z,6.70
2023-04-29T20:47:27.715Z,8.35
2023-04-29T20:49:55.871Z,7.10
2023-04-29T20:52:24.552Z,7.57
2023-04-29T20:54:52.906Z,10.75
2023-04-29T20:57:22.172Z,6.00
2023-04-29T20:59:50.161Z,6.68
2023-04-29T21:02:18.098Z,6.10
2023-04-29T21:04:46.186Z,8.25
2023-04-29T21:07:14.179Z,6.50
2023-04-29T21:09:42.117Z,7.60
2023-04-29T21:12:10.016Z,10.02
2023-04-29T21:14:40.836Z,13.00
2023-04-29T21:17:09.965Z,6.43
2023-04-29T21:19:38.536Z,9.70
2023-04-29T21:22:06.496Z,7.30
2023-04-29T21:24:34.356Z,9.13
2023-04-29T21:27:02.637Z,8.00
2023-04-29T21:29:30.489Z,6.10
2023-04-29T21:31:59.734Z,9.03
2023-04-29T21:34:27.623Z,7.43
2023-04-29T21:36:55.491Z,6.15
2023-04-29T21:39:23.433Z,7.78
2023-04-29T21:41:51.471Z,7.90
2023-04-29T21:44:19.375Z,12.20
2023-04-29T21:46:47.407Z,8.43
2023-04-29T21:49:16.994Z,10.52
2023-04-29T21:51:44.979Z,9.95
2023-04-29T21:54:12.793Z,8.73
2023-04-29T21:56:40.720Z,9.30
2023-04-29T21:59:08.794Z,8.32
2023-04-29T22:01:49.098Z,10.33
2023-04-29T22:04:19.018Z,8.77
2023-04-29T22:06:47.065Z,10.18
2023-04-29T22:09:16.166Z,9.00
2023-04-29T22:11:44.838Z,9.10
2023-04-29T22:14:12.790Z,8.75
2023-04-29T22:16:41.260Z,9.13
2023-04-29T22:19:09.292Z,8.55
2023-04-29T22:21:40.767Z,7.57
2023-04-29T22:24:09.237Z,7.80
2023-04-29T22:26:37.114Z,9.43
2023-04-29T22:29:05.173Z,8.70
2023-04-29T22:31:33.068Z,8.13
2023-04-29T22:34:01.037Z,7.53
2023-04-29T22:36:28.990Z,8.35
2023-04-29T22:38:58.250Z,10.02
2023-04-29T22:41:26.136Z,9.35
2023-04-29T22:43:57.311Z,13.25
2023-04-29T22:46:25.812Z,8.55
2023-04-29T22:48:53.829Z,11.10
2023-04-29T22:51:21.747Z,9.65
2023-04-29T22:53:49.576Z,11.57
2023-04-29T22:56:18.827Z,9.88
2023-04-29T22:58:46.756Z,9.07
2023-04-29T23:01:14.654Z,11.02
2023-04-29T23:03:42.545Z,11.35
2023-04-29T23:06:10.551Z,11.23
2023-04-29T23:08:38.499Z,8.80
2023-04-29T23:11:06.494Z,9.20
2023-04-29T23:13:35.781Z,9.83
2023-04-29T23:16:03.754Z,9.10
2023-04-29T23:18:31.926Z,9.25
2023-04-29T23:20:59.868Z,10.45
2023-04-29T23:23:27.826Z,9.38
2023-04-29T23:25:55.721Z,10.97
2023-04-29T23:28:24.624Z,11.70
2023-04-29T23:30:54.420Z,9.75
2023-04-29T23:33:22.395Z,8.75
2023-04-29T23:35:51.017Z,10.50
2023-04-29T23:38:19.189Z,9.52
2023-04-29T23:40:47.342Z,10.83
2023-04-29T23:43:15.726Z,11.15
2023-04-29T23:45:45.254Z,11.20
2023-04-29T23:48:15.623Z,9.23
2023-04-29T23:50:43.565Z,10.40
2023-04-29T23:53:11.528Z,8.30
2023-04-29T23:55:39.426Z,10.70
2023-04-29T23:58:07.650Z,10.25
